createdAt,value
2022-09-25T00:01:15.581Z,100170.88
2022-09-25T00:03:42.964Z,100224.03
2022-09-25T00:06:13.916Z,100221.41
2022-09-25T00:08:41.539Z,100201.78
2022-09-25T00:11:11.320Z,100206.91
2022-09-25T00:13:40.690Z,100221.53
2022-09-25T00:16:10.681Z,100207.72
2022-09-25T00:18:56.196Z,100212.91
2022-09-25T00:21:23.571Z,100205.19
2022-09-25T00:23:50.968Z,100204.41
2022-09-25T00:26:18.270Z,100207.94
2022-09-25T00:28:45.479Z,100201.91
2022-09-25T00:31:20.374Z,100206.25
2022-09-25T00:33:47.583Z,100142.13
2022-09-25T00:36:14.694Z,100179.78
2022-09-25T00:38:41.891Z,100200.31
2022-09-25T00:41:09.132Z,100194.28
2022-09-25T00:43:41.978Z,100194.25
2022-09-25T00:46:15.213Z,100164.34
2022-09-25T00:48:53.835Z,100191.69
2022-09-25T00:51:29.869Z,100169.47
2022-09-25T00:54:04.868Z,100190.00
2022-09-25T00:56:39.508Z,100193.47
2022-09-25T00:59:12.012Z,100188.31
2022-09-25T01:01:39.377Z,100186.56
2022-09-25T01:04:07.782Z,100191.69
2022-09-25T01:06:36.318Z,100083.88
2022-09-25T01:09:03.401Z,100077.06
2022-09-25T01:11:31.447Z,100187.41
2022-09-25T01:14:02.720Z,100157.47
2022-09-25T01:16:44.903Z,100151.50
2022-09-25T01:19:43.482Z,100178.09
2022-09-25T01:22:36.868Z,100155.97
2022-09-25T01:25:37.164Z,100186.09
2022-09-25T01:28:32.428Z,100183.56
2022-09-25T01:31:04.835Z,100184.50
2022-09-25T01:33:37.505Z,100182.84
2022-09-25T01:36:29.670Z,100175.97
2022-09-25T01:39:36.009Z,100173.38
2022-09-25T01:42:17.497Z,100159.75
2022-09-25T01:44:52.226Z,100175.28
2022-09-25T01:47:23.350Z,100165.00
2022-09-25T01:49:56.128Z,100173.59
2022-09-25T01:52:28.657Z,100162.47
2022-09-25T01:55:08.022Z,100183.09
2022-09-25T01:57:41.751Z,100178.03
2022-09-25T02:00:12.848Z,100179.78
2022-09-25T02:03:09.725Z,100179.00
2022-09-25T02:05:53.303Z,100184.22
2022-09-25T02:08:25.157Z,100186.00
2022-09-25T02:10:58.483Z,100184.31
2022-09-25T02:13:43.616Z,100182.59
2022-09-25T02:16:17.093Z,100185.16
2022-09-25T02:19:03.731Z,100152.63
2022-09-25T02:21:43.067Z,100180.97
2022-09-25T02:24:37.480Z,100119.31
2022-09-25T02:27:05.127Z,100158.69
2022-09-25T02:29:32.741Z,100182.81
2022-09-25T02:32:05.286Z,100175.91
2022-09-25T02:34:33.530Z,100177.69
2022-09-25T02:37:00.571Z,100127.16
2022-09-25T02:39:30.547Z,100170.88
2022-09-25T02:42:06.699Z,100167.44
2022-09-25T02:44:55.829Z,100175.19
2022-09-25T02:47:33.447Z,100129.81
2022-09-25T02:50:16.372Z,100178.66
2022-09-25T02:53:21.977Z,100176.03
2022-09-25T02:55:51.953Z,100176.91
2022-09-25T02:58:21.762Z,100168.19
2022-09-25T03:00:52.613Z,100164.75
2022-09-25T03:03:21.416Z,100161.38
2022-09-25T03:05:51.880Z,100158.88
2022-09-25T03:08:39.629Z,100161.47
2022-09-25T03:11:09.260Z,100158.94
2022-09-25T03:13:37.658Z,100163.31
2022-09-25T03:16:07.184Z,100164.16
2022-09-25T03:18:34.736Z,100167.63
2022-09-25T03:21:04.517Z,100172.84
2022-09-25T03:23:35.326Z,100164.25
2022-09-25T03:26:02.620Z,100111.16
2022-09-25T03:28:29.908Z,100150.63
2022-09-25T03:31:08.408Z,100139.47
2022-09-25T03:33:38.539Z,100176.38
2022-09-25T03:36:09.916Z,100161.72
2022-09-25T03:38:37.739Z,100163.47
2022-09-25T03:41:09.698Z,100121.50
2022-09-25T03:43:38.543Z,100169.47
2022-09-25T03:46:07.940Z,100167.78
2022-09-25T03:48:36.669Z,100173.78
2022-09-25T03:51:04.722Z,100167.72
2022-09-25T03:53:33.924Z,100166.00
2022-09-25T03:56:02.576Z,100169.41
2022-09-25T03:58:29.895Z,100166.00
2022-09-25T04:00:58.189Z,100178.06
2022-09-25T04:03:29.456Z,100176.34
2022-09-25T04:05:58.409Z,100178.06
2022-09-25T04:08:27.343Z,100172.06
2022-09-25T04:10:56.556Z,100171.19
2022-09-25T04:13:24.850Z,100164.34
2022-09-25T04:15:52.125Z,100148.91
2022-09-25T04:18:19.820Z,100123.16
2022-09-25T04:20:47.020Z,100155.72
2022-09-25T04:23:14.391Z,100159.97
2022-09-25T04:25:41.840Z,100096.56
2022-09-25T04:28:10.496Z,100116.28
2022-09-25T04:30:37.862Z,100164.25
2022-09-25T04:33:23.974Z,100158.19
2022-09-25T04:35:51.179Z,100158.22
2022-09-25T04:38:18.384Z,100162.47
2022-09-25T04:40:46.345Z,100103.34
2022-09-25T04:43:13.677Z,100156.50
2022-09-25T04:45:40.977Z,100154.75
2022-09-25T04:48:08.071Z,100164.19
2022-09-25T04:50:35.483Z,100143.56
2022-09-25T04:53:03.242Z,100148.72
2022-09-25T04:55:30.881Z,100128.97
2022-09-25T04:58:00.975Z,100152.88
2022-09-25T05:00:30.909Z,100156.31
2022-09-25T05:02:59.172Z,100154.59
2022-09-25T05:05:30.928Z,100151.94
2022-09-25T05:07:59.821Z,100157.91
2022-09-25T05:10:30.065Z,100157.88
2022-09-25T05:12:58.421Z,100160.41
2022-09-25T05:15:26.584Z,100163.81
2022-09-25T05:18:06.209Z,100154.34
2022-09-25T05:20:36.036Z,100163.75
2022-09-25T05:23:04.698Z,100162.00
2022-09-25T05:25:32.546Z,100167.22
2022-09-25T05:28:01.117Z,100165.47
2022-09-25T05:30:32.506Z,100144.06
2022-09-25T05:32:59.646Z,100163.75
2022-09-25T05:35:32.475Z,100172.22
2022-09-25T05:37:59.996Z,100169.53
2022-09-25T05:40:27.705Z,100166.91
2022-09-25T05:42:58.617Z,100151.41
2022-09-25T05:45:26.182Z,100154.78
2022-09-25T05:48:08.016Z,100162.47
2022-09-25T05:50:35.542Z,100154.72
2022-09-25T05:53:05.673Z,100156.41
2022-09-25T05:55:32.944Z,100140.25
2022-09-25T05:58:02.212Z,100161.59
2022-09-25T06:00:29.345Z,100167.56
2022-09-25T06:02:56.634Z,100171.84
2022-09-25T06:05:23.794Z,100156.41
2022-09-25T06:07:55.322Z,100120.44
2022-09-25T06:10:23.307Z,100168.38
2022-09-25T06:12:50.502Z,100171.72
2022-09-25T06:15:17.706Z,100176.09
2022-09-25T06:17:45.009Z,100173.38
2022-09-25T06:20:16.109Z,100126.25
2022-09-25T06:22:44.801Z,100113.28
2022-09-25T06:25:12.483Z,100153.44
2022-09-25T06:27:40.129Z,100168.03
2022-09-25T06:30:07.863Z,100156.88
2022-09-25T06:32:35.143Z,100152.53
2022-09-25T06:35:02.579Z,100127.78
2022-09-25T06:37:29.955Z,100101.28
2022-09-25T06:39:57.224Z,100159.31
2022-09-25T06:42:24.340Z,100151.59
2022-09-25T06:44:51.549Z,100170.41
2022-09-25T06:47:22.505Z,100121.53
2022-09-25T06:49:52.499Z,100136.97
2022-09-25T06:52:20.496Z,100172.88
2022-09-25T06:54:47.789Z,100173.63
2022-09-25T06:57:15.426Z,100164.06
2022-09-25T06:59:42.719Z,100168.34
2022-09-25T07:02:28.919Z,100165.63
2022-09-25T07:04:56.272Z,100167.28
2022-09-25T07:07:24.421Z,100163.66
2022-09-25T07:09:51.467Z,100156.69
2022-09-25T07:12:18.622Z,100150.56
2022-09-25T07:14:47.199Z,100145.22
2022-09-25T07:17:15.130Z,100169.16
2022-09-25T07:19:42.384Z,100166.50
2022-09-25T07:22:11.217Z,100163.00
2022-09-25T07:24:39.384Z,100150.94
2022-09-25T07:27:06.570Z,100093.38
2022-09-25T07:29:35.969Z,100155.69
2022-09-25T07:32:04.895Z,100163.28
2022-09-25T07:34:34.676Z,100158.81
2022-09-25T07:37:02.266Z,100135.59
2022-09-25T07:39:29.541Z,100138.97
2022-09-25T07:41:56.826Z,100144.91
2022-09-25T07:44:28.919Z,100136.28
2022-09-25T07:46:59.801Z,100129.56
2022-09-25T07:49:27.866Z,100172.97
2022-09-25T07:51:54.953Z,100156.75
2022-09-25T07:54:22.272Z,100154.94
2022-09-25T07:56:49.903Z,100161.59
2022-09-25T07:59:17.154Z,100163.22
2022-09-25T08:01:48.447Z,100166.56
2022-09-25T08:04:18.586Z,100168.28
2022-09-25T08:06:45.687Z,100089.59
2022-09-25T08:09:13.024Z,100168.34
2022-09-25T08:11:40.163Z,100154.53
2022-09-25T08:14:07.569Z,100154.44
2022-09-25T08:16:34.734Z,100144.09
2022-09-25T08:19:18.012Z,100146.50
2022-09-25T08:21:45.364Z,100142.06
2022-09-25T08:24:12.848Z,100141.06
2022-09-25T08:26:40.074Z,100133.91
2022-09-25T08:29:09.549Z,100132.66
2022-09-25T08:31:37.130Z,100140.38
2022-09-25T08:34:28.078Z,100143.16
2022-09-25T08:36:51.542Z,100129.53
2022-09-25T08:39:18.853Z,100131.47
2022-09-25T08:41:50.158Z,100134.63
2022-09-25T08:44:37.640Z,100122.41
2022-09-25T08:47:40.434Z,100119.00
2022-09-25T08:50:14.865Z,100119.09
2022-09-25T08:52:46.353Z,100107.22
2022-09-25T08:55:48.524Z,100113.97
2022-09-25T08:58:24.879Z,100112.16
2022-09-25T09:01:00.235Z,100089.28
2022-09-25T09:03:30.556Z,100118.38
2022-09-25T09:06:02.892Z,100121.06
2022-09-25T09:08:33.906Z,100115.94
2022-09-25T09:11:11.294Z,100113.38
2022-09-25T09:13:51.629Z,100112.66
2022-09-25T09:16:27.538Z,100110.91
2022-09-25T09:18:56.139Z,100102.28
2022-09-25T09:21:45.311Z,100108.50
2022-09-25T09:24:19.122Z,100107.56
2022-09-25T09:27:10.740Z,100107.69
2022-09-25T09:29:59.360Z,100109.25
2022-09-25T09:32:41.829Z,100110.94
2022-09-25T09:35:47.026Z,100104.78
2022-09-25T09:38:23.460Z,100100.44
2022-09-25T09:41:01.291Z,100103.66
2022-09-25T09:43:57.372Z,100094.84
2022-09-25T09:46:35.767Z,100098.25
2022-09-25T09:49:40.032Z,100091.31
2022-09-25T09:52:11.874Z,100098.34
2022-09-25T09:54:43.267Z,100098.44
2022-09-25T09:57:23.226Z,100091.59
2022-09-25T10:00:05.362Z,100097.81
2022-09-25T10:02:43.484Z,100096.91
2022-09-25T10:05:30.587Z,100095.19
2022-09-25T10:07:57.989Z,100091.75
2022-09-25T10:10:33.979Z,100094.34
2022-09-25T10:13:06.743Z,100094.34
2022-09-25T10:15:42.961Z,100097.06
2022-09-25T10:18:11.429Z,100081.53
2022-09-25T10:21:04.227Z,100078.00
2022-09-25T10:23:46.460Z,100083.22
2022-09-25T10:26:52.029Z,100079.81
2022-09-25T10:29:21.882Z,100081.53
2022-09-25T10:31:59.159Z,100078.94
2022-09-25T10:34:29.824Z,100078.03
2022-09-25T10:36:57.227Z,100077.16
2022-09-25T10:39:44.626Z,100078.84
2022-09-25T10:42:37.537Z,100077.16
2022-09-25T10:45:22.930Z,100074.50
2022-09-25T10:48:09.896Z,100069.22
2022-09-25T10:50:37.427Z,100062.31
2022-09-25T10:53:05.813Z,100067.41
2022-09-25T10:55:46.587Z,100062.22
2022-09-25T10:58:21.920Z,100067.50
2022-09-25T11:00:52.196Z,100061.38
2022-09-25T11:03:25.513Z,100061.38
2022-09-25T11:06:00.483Z,100039.06
2022-09-25T11:08:32.619Z,100051.75
2022-09-25T11:11:01.757Z,100050.88
2022-09-25T11:13:37.426Z,100051.66
2022-09-25T11:16:10.557Z,100048.16
2022-09-25T11:18:51.872Z,100042.97
2022-09-25T11:21:30.873Z,100042.97
2022-09-25T11:24:20.541Z,100048.16
2022-09-25T11:27:11.756Z,100046.44
2022-09-25T11:30:06.731Z,100033.50
2022-09-25T11:32:52.585Z,100037.75
2022-09-25T11:35:41.210Z,100035.88
2022-09-25T11:39:07.729Z,100034.06
2022-09-25T11:41:44.058Z,100040.88
2022-09-25T11:44:32.276Z,100036.50
2022-09-25T11:47:05.706Z,100032.09
2022-09-25T11:49:36.657Z,100032.00
2022-09-25T11:52:42.935Z,100030.19
2022-09-25T11:55:15.925Z,100025.69
2022-09-25T11:58:02.842Z,100016.94
2022-09-25T12:00:29.875Z,100021.88
2022-09-25T12:03:04.180Z,100015.50
2022-09-25T12:05:43.044Z,99993.16
2022-09-25T12:08:19.692Z,100011.63
2022-09-25T12:11:04.776Z,100009.50
2022-09-25T12:13:50.791Z,100007.50
2022-09-25T12:16:33.404Z,99993.25
2022-09-25T12:19:24.836Z,99986.53
2022-09-25T12:22:12.944Z,99978.47
2022-09-25T12:24:55.297Z,99987.44
2022-09-25T12:27:42.177Z,99986.00
2022-09-25T12:30:24.144Z,99983.84
2022-09-25T12:33:07.278Z,99976.59
2022-09-25T12:35:39.233Z,99967.63
2022-09-25T12:38:11.183Z,99978.19
2022-09-25T12:41:06.277Z,99964.34
2022-09-25T12:43:53.262Z,99973.28
2022-09-25T12:46:20.525Z,99961.28
2022-09-25T12:49:16.594Z,99964.97
2022-09-25T12:51:53.024Z,99960.56
2022-09-25T12:55:01.270Z,99962.84
2022-09-25T12:57:38.674Z,99969.78
2022-09-25T13:00:24.334Z,99954.94
2022-09-25T13:03:14.521Z,99960.91
2022-09-25T13:05:53.389Z,99955.38
2022-09-25T13:08:27.824Z,99954.31
2022-09-25T13:11:04.443Z,99956.81
2022-09-25T13:13:40.283Z,99955.13
2022-09-25T13:16:07.487Z,99945.59
2022-09-25T13:18:36.194Z,99955.25
2022-09-25T13:21:06.185Z,99949.19
2022-09-25T13:23:40.819Z,99947.34
2022-09-25T13:26:14.661Z,99946.50
2022-09-25T13:29:07.794Z,99944.81
2022-09-25T13:31:37.275Z,99948.22
2022-09-25T13:34:12.571Z,99943.00
2022-09-25T13:36:55.701Z,99944.00
2022-09-25T13:39:44.084Z,99924.25
2022-09-25T13:42:23.490Z,99948.44
2022-09-25T13:44:52.736Z,99936.31
2022-09-25T13:47:25.558Z,99930.34
2022-09-25T13:50:04.550Z,99926.22
2022-09-25T13:52:41.017Z,99926.44
2022-09-25T13:55:14.161Z,99931.66
2022-09-25T13:57:56.428Z,99931.66
2022-09-25T14:00:24.017Z,99928.03
2022-09-25T14:02:51.437Z,99933.25
2022-09-25T14:05:22.182Z,99923.81
2022-09-25T14:07:55.813Z,99920.63
2022-09-25T14:10:24.076Z,99909.53
2022-09-25T14:12:52.019Z,99912.16
2022-09-25T14:15:40.473Z,99916.59
2022-09-25T14:18:16.884Z,99915.72
2022-09-25T14:20:50.714Z,99916.69
2022-09-25T14:23:20.675Z,99911.38
2022-09-25T14:26:07.595Z,99908.84
2022-09-25T14:28:45.342Z,99911.47
2022-09-25T14:31:33.291Z,99909.91
2022-09-25T14:34:37.995Z,99908.38
2022-09-25T14:37:11.456Z,99911.94
2022-09-25T14:40:04.022Z,99905.13
2022-09-25T14:42:51.510Z,99913.84
2022-09-25T14:45:49.521Z,99912.16
2022-09-25T14:48:26.947Z,99906.97
2022-09-25T14:51:01.748Z,99900.03
2022-09-25T14:53:33.635Z,99898.34
2022-09-25T14:56:03.125Z,99905.34
2022-09-25T14:58:33.072Z,99887.28
2022-09-25T15:01:14.005Z,99886.50
2022-09-25T15:03:47.040Z,99896.06
2022-09-25T15:06:24.938Z,99891.78
2022-09-25T15:08:53.070Z,99888.41
2022-09-25T15:11:21.961Z,99874.69
2022-09-25T15:13:49.289Z,99891.94
2022-09-25T15:16:44.043Z,99889.44
2022-09-25T15:19:25.888Z,99879.13
2022-09-25T15:21:54.260Z,99882.72
2022-09-25T15:24:27.912Z,99877.59
2022-09-25T15:27:06.408Z,99880.38
2022-09-25T15:29:38.351Z,99883.00
2022-09-25T15:32:06.780Z,99873.63
2022-09-25T15:34:34.259Z,99875.41
2022-09-25T15:37:17.601Z,99873.88
2022-09-25T15:39:45.141Z,99872.19
2022-09-25T15:42:14.211Z,99872.38
2022-09-25T15:44:42.193Z,99874.16
2022-09-25T15:47:34.830Z,99869.19
2022-09-25T15:50:03.817Z,99874.63
2022-09-25T15:52:35.188Z,99857.59
2022-09-25T15:55:06.795Z,99871.44
2022-09-25T15:57:34.310Z,99870.75
2022-09-25T16:00:26.544Z,99867.50
2022-09-25T16:03:44.673Z,99861.75
2022-09-25T16:06:16.990Z,99858.53
2022-09-25T16:08:44.877Z,99868.34
2022-09-25T16:11:22.938Z,99866.84
2022-09-25T16:13:54.035Z,99869.63
2022-09-25T16:16:23.537Z,99870.56
2022-09-25T16:18:54.145Z,99866.41
2022-09-25T16:21:24.484Z,99871.06
2022-09-25T16:23:56.227Z,99865.19
2022-09-25T16:26:26.551Z,99865.59
2022-09-25T16:29:03.387Z,99856.13
2022-09-25T16:31:31.420Z,99865.84
2022-09-25T16:34:00.684Z,99855.63
2022-09-25T16:36:37.310Z,99861.13
2022-09-25T16:39:10.114Z,99852.69
2022-09-25T16:41:39.480Z,99852.84
2022-09-25T16:44:22.067Z,99842.81
2022-09-25T16:46:52.468Z,99849.81
2022-09-25T16:49:22.667Z,99848.44
2022-09-25T16:51:52.547Z,99855.44
2022-09-25T16:54:21.702Z,99843.66
2022-09-25T16:56:49.571Z,99846.34
2022-09-25T16:59:19.686Z,99845.56
2022-09-25T17:01:48.347Z,99837.94
2022-09-25T17:04:16.147Z,99841.50
2022-09-25T17:06:46.010Z,99836.47
2022-09-25T17:09:16.226Z,99842.59
2022-09-25T17:11:45.871Z,99838.50
2022-09-25T17:14:24.553Z,99829.06
2022-09-25T17:16:53.278Z,99830.09
2022-09-25T17:19:21.549Z,99833.72
2022-09-25T17:21:51.568Z,99827.97
2022-09-25T17:24:24.198Z,99828.13
2022-09-25T17:26:54.876Z,99829.97
2022-09-25T17:29:22.875Z,99826.53
2022-09-25T17:31:49.979Z,99825.84
2022-09-25T17:34:28.755Z,99819.94
2022-09-25T17:36:56.753Z,99815.75
2022-09-25T17:39:24.314Z,99812.41
2022-09-25T17:41:51.759Z,99816.88
2022-09-25T17:44:23.071Z,99815.31
2022-09-25T17:46:52.015Z,99806.81
2022-09-25T17:49:19.502Z,99819.75
2022-09-25T17:51:47.170Z,99812.06
2022-09-25T17:54:14.378Z,99817.38
2022-09-25T17:56:42.796Z,99820.94
2022-09-25T17:59:10.357Z,99804.69
2022-09-25T18:01:39.740Z,99815.88
2022-09-25T18:04:26.071Z,99809.91
2022-09-25T18:06:53.377Z,99810.81
2022-09-25T18:09:20.834Z,99805.75
2022-09-25T18:11:48.274Z,99811.00
2022-09-25T18:14:16.574Z,99804.25
2022-09-25T18:16:44.956Z,99811.28
2022-09-25T18:19:38.792Z,99804.44
2022-09-25T18:22:18.356Z,99801.16
2022-09-25T18:24:46.915Z,99797.94
2022-09-25T18:27:15.216Z,99798.94
2022-09-25T18:29:44.763Z,99804.06
2022-09-25T18:32:11.980Z,99805.88
2022-09-25T18:34:39.343Z,99808.44
2022-09-25T18:37:06.556Z,99803.31
2022-09-25T18:39:34.582Z,99784.75
2022-09-25T18:42:01.764Z,99809.59
2022-09-25T18:44:29.231Z,99798.50
2022-09-25T18:46:56.378Z,99809.72
2022-09-25T18:49:25.144Z,99810.63
2022-09-25T18:51:52.297Z,99805.50
2022-09-25T18:54:20.636Z,99801.31
2022-09-25T18:56:47.810Z,99798.78
2022-09-25T18:59:15.516Z,99798.84
2022-09-25T19:01:42.775Z,99800.63
2022-09-25T19:04:15.873Z,99793.69
2022-09-25T19:06:42.972Z,99804.03
2022-09-25T19:09:15.468Z,99789.41
2022-09-25T19:11:44.163Z,99800.56
2022-09-25T19:14:15.060Z,99789.41
2022-09-25T19:16:42.667Z,99796.22
2022-09-25T19:19:09.972Z,99791.94
2022-09-25T19:21:37.062Z,99797.91
2022-09-25T19:24:04.879Z,99793.56
2022-09-25T19:26:32.126Z,99785.03
2022-09-25T19:29:00.668Z,99791.03
2022-09-25T19:31:29.192Z,99793.56
2022-09-25T19:33:56.754Z,99791.81
2022-09-25T19:36:26.949Z,99798.59
2022-09-25T19:38:54.788Z,99798.56
2022-09-25T19:41:26.576Z,99805.38
2022-09-25T19:43:57.316Z,99807.06
2022-09-25T19:46:25.990Z,99802.59
2022-09-25T19:48:53.204Z,99795.66
2022-09-25T19:51:22.723Z,99794.66
2022-09-25T19:53:50.781Z,99800.69
2022-09-25T19:56:19.416Z,99792.06
2022-09-25T19:58:51.244Z,99786.00
2022-09-25T20:01:27.695Z,99797.94
2022-09-25T20:03:58.695Z,99796.22
2022-09-25T20:06:27.158Z,99787.66
2022-09-25T20:09:03.788Z,99782.56
2022-09-25T20:11:32.679Z,99799.56
2022-09-25T20:14:02.261Z,99794.38
2022-09-25T20:16:30.421Z,99792.50
2022-09-25T20:19:03.334Z,99771.09
2022-09-25T20:21:34.545Z,99790.56
2022-09-25T20:24:04.107Z,99787.84
2022-09-25T20:26:32.158Z,99774.78
2022-09-25T20:29:01.868Z,99776.41
2022-09-25T20:31:32.659Z,99779.00
2022-09-25T20:33:59.993Z,99763.53
2022-09-25T20:36:27.667Z,99778.03
2022-09-25T20:38:56.255Z,99774.66
2022-09-25T20:41:25.476Z,99773.69
2022-09-25T20:43:54.870Z,99763.38
2022-09-25T20:46:24.150Z,99772.69
2022-09-25T20:48:53.196Z,99770.94
2022-09-25T20:51:27.222Z,99770.94
2022-09-25T20:54:07.006Z,99773.59
2022-09-25T20:56:36.101Z,99757.38
2022-09-25T20:59:04.222Z,99766.88
2022-09-25T21:01:35.213Z,99759.97
2022-09-25T21:04:04.065Z,99760.78
2022-09-25T21:06:33.385Z,99757.28
2022-09-25T21:09:03.825Z,99745.31
2022-09-25T21:11:32.013Z,99763.38
2022-09-25T21:14:02.848Z,99755.59
2022-09-25T21:16:31.753Z,99743.44
2022-09-25T21:19:01.922Z,99741.66
2022-09-25T21:21:29.261Z,99738.22
2022-09-25T21:23:58.360Z,99705.66
2022-09-25T21:26:28.354Z,99735.53
2022-09-25T21:28:57.331Z,99731.16
2022-09-25T21:31:27.524Z,99726.75
2022-09-25T21:33:56.898Z,99727.69
2022-09-25T21:36:25.622Z,99725.03
2022-09-25T21:38:53.062Z,99723.28
2022-09-25T21:41:22.849Z,99719.75
2022-09-25T21:43:54.054Z,99713.75
2022-09-25T21:46:21.638Z,99710.28
2022-09-25T21:49:00.378Z,99692.31
2022-09-25T21:51:30.476Z,99699.94
2022-09-25T21:53:57.739Z,99698.28
2022-09-25T21:56:27.579Z,99700.84
2022-09-25T21:58:55.900Z,99682.72
2022-09-25T22:01:26.294Z,99694.81
2022-09-25T22:03:55.539Z,99692.22
2022-09-25T22:06:26.599Z,99693.94
2022-09-25T22:08:59.695Z,99691.34
2022-09-25T22:11:27.911Z,99687.91
2022-09-25T22:13:57.536Z,99685.22
2022-09-25T22:16:27.708Z,99670.56
2022-09-25T22:18:58.347Z,99668.81
2022-09-25T22:21:28.422Z,99666.22
2022-09-25T22:23:56.813Z,99660.13
2022-09-25T22:26:24.650Z,99661.81
2022-09-25T22:28:52.192Z,99658.34
2022-09-25T22:31:30.305Z,99659.22
2022-09-25T22:34:05.534Z,99656.63
2022-09-25T22:36:35.331Z,99661.91
2022-09-25T22:39:04.369Z,99666.16
2022-09-25T22:41:31.835Z,99663.53
2022-09-25T22:44:00.946Z,99662.69
2022-09-25T22:46:28.989Z,99654.94
2022-09-25T22:48:56.414Z,99653.34
2022-09-25T22:51:25.434Z,99648.19
2022-09-25T22:53:54.012Z,99643.06
2022-09-25T22:56:26.402Z,99643.09
2022-09-25T22:58:59.671Z,99643.19
2022-09-25T23:01:37.934Z,99639.72
2022-09-25T23:04:11.604Z,99637.22
2022-09-25T23:06:38.934Z,99636.31
2022-09-25T23:09:09.215Z,99629.41
2022-09-25T23:11:36.357Z,99624.34
2022-09-25T23:14:07.060Z,99620.91
2022-09-25T23:16:34.361Z,99615.00
2022-09-25T23:19:02.084Z,99622.66
2022-09-25T23:21:30.926Z,99623.50
2022-09-25T23:24:02.705Z,99614.88
2022-09-25T23:26:30.509Z,99618.31
2022-09-25T23:29:03.839Z,99626.09
2022-09-25T23:31:32.492Z,99620.91
2022-09-25T23:34:03.548Z,99625.22
2022-09-25T23:36:31.581Z,99618.34
2022-09-25T23:39:00.320Z,99619.16
2022-09-25T23:41:31.601Z,99618.31
2022-09-25T23:44:00.093Z,99615.72
2022-09-25T23:46:30.263Z,99612.28
2022-09-25T23:48:57.848Z,99606.25
2022-09-25T23:51:26.366Z,99593.41
2022-09-25T23:53:56.756Z,99596.81
2022-09-25T23:56:25.090Z,99585.66
2022-09-25T23:58:52.553Z,99588.31
